This is the latest recevied weather packets stored in our database for station/object YN1ZSC-13. If no packets are shown the sender has not sent any weather packets the latest 10 day(s).
| Time | Temp. | Humidity | Pressure | Rain* | Wind** | Luminosity | Snow |
|---|---|---|---|---|---|---|---|
| 1778259029 | 32.78° C | 46% | 1011 hPa | 0 mm | - | - | - |
| 1778258429 | 32.78° C | 46% | 1011 hPa | 0 mm | - | - | - |
| 1778257828 | 29.44° C | 55% | 1011 hPa | 0 mm | - | - | - |
| 1778257227 | 30° C | 55% | 1011 hPa | 0 mm | - | - | - |
| 1778256627 | 30.56° C | 55% | 1011 hPa | 0 mm | - | - | - |
| 1778256026 | 31.11° C | 55% | 1011 hPa | 0 mm | - | - | - |
| 1778255426 | 31.11° C | 55% | 1011 hPa | 0 mm | - | - | - |
| 1778254825 | 31.67° C | 55% | 1011 hPa | 0 mm | - | - | - |
| 1778254225 | 28.89° C | 61% | 1011 hPa | 0 mm | - | - | - |
| 1778253624 | 27.78° C | 62% | 1012 hPa | 0 mm | - | - | - |
| 1778253023 | 28.33° C | 62% | 1012 hPa | 0 mm | - | - | - |
| 1778252423 | 28.33° C | 62% | 1012 hPa | 0 mm | - | - | - |
| 1778251822 | 28.89° C | 62% | 1012 hPa | 0 mm | - | - | - |
| 1778251222 | 29.44° C | 62% | 1012 hPa | 0 mm | - | - | - |
| 1778250621 | 26.67° C | 70% | 1012 hPa | 0 mm | - | - | - |
| 1778250020 | 26.11° C | 70% | 1012 hPa | 0 mm | - | - | - |
| 1778249420 | 26.67° C | 70% | 1012 hPa | 0 mm | - | - | - |
| 1778248819 | 27.22° C | 70% | 1012 hPa | 0 mm | - | - | - |
| 1778248218 | 27.78° C | 70% | 1012 hPa | 0 mm | - | - | - |
| 1778247618 | 28.33° C | 70% | 1012 hPa | 0 mm | - | - | - |
| 1778247017 | 25.56° C | 77% | 1012 hPa | 0 mm | - | - | - |
| 1778246417 | 24.44° C | 78% | 1011 hPa | 0 mm | - | - | - |
| 1778245816 | 25° C | 78% | 1011 hPa | 0 mm | - | - | - |
| 1778245215 | 25° C | 78% | 1011 hPa | 0 mm | - | - | - |
| 1778244615 | 25.56° C | 78% | 1011 hPa | 0 mm | - | - | - |
* Rain latest hour (hover to see other rain measurements)
** Current wind speed in m/s (hover to see current wind gust speed)